sensor_id;sensor_type;location;lat;lon;timestamp;P1;durP1;ratioP1;P2;durP2;ratioP2
32838;SDS011;19182;41.820;12.808;2023-08-20T00:01:14;8.85;;;6.70;;
32838;SDS011;19182;41.820;12.808;2023-08-20T00:03:46;9.20;;;6.18;;
32838;SDS011;19182;41.820;12.808;2023-08-20T00:06:15;11.03;;;6.30;;
32838;SDS011;19182;41.820;12.808;2023-08-20T00:08:41;9.75;;;6.15;;
32838;SDS011;19182;41.820;12.808;2023-08-20T00:11:07;11.13;;;6.43;;
32838;SDS011;19182;41.820;12.808;2023-08-20T00:13:33;11.88;;;6.95;;
32838;SDS011;19182;41.820;12.808;2023-08-20T00:15:59;8.90;;;6.18;;
32838;SDS011;19182;41.820;12.808;2023-08-20T00:18:25;6.53;;;5.80;;
32838;SDS011;19182;41.820;12.808;2023-08-20T00:20:51;10.30;;;5.80;;
32838;SDS011;19182;41.820;12.808;2023-08-20T00:23:18;11.30;;;6.05;;
32838;SDS011;19182;41.820;12.808;2023-08-20T00:25:46;10.05;;;5.35;;
32838;SDS011;19182;41.820;12.808;2023-08-20T00:28:13;9.63;;;5.80;;
32838;SDS011;19182;41.820;12.808;2023-08-20T00:30:39;12.23;;;5.63;;
32838;SDS011;19182;41.820;12.808;2023-08-20T00:33:05;8.30;;;5.60;;
32838;SDS011;19182;41.820;12.808;2023-08-20T00:35:32;7.82;;;5.47;;
32838;SDS011;19182;41.820;12.808;2023-08-20T00:37:57;10.60;;;5.70;;
32838;SDS011;19182;41.820;12.808;2023-08-20T00:40:25;9.82;;;5.60;;
32838;SDS011;19182;41.820;12.808;2023-08-20T00:42:51;13.25;;;5.90;;
32838;SDS011;19182;41.820;12.808;2023-08-20T00:45:17;10.40;;;6.55;;
32838;SDS011;19182;41.820;12.808;2023-08-20T00:47:43;7.07;;;5.38;;
32838;SDS011;19182;41.820;12.808;2023-08-20T00:50:09;9.02;;;5.72;;
32838;SDS011;19182;41.820;12.808;2023-08-20T00:52:36;8.70;;;5.80;;
32838;SDS011;19182;41.820;12.808;2023-08-20T00:55:09;8.60;;;5.55;;
32838;SDS011;19182;41.820;12.808;2023-08-20T00:57:37;10.02;;;6.00;;
32838;SDS011;19182;41.820;12.808;2023-08-20T01:00:03;9.48;;;5.95;;
32838;SDS011;19182;41.820;12.808;2023-08-20T01:02:35;16.67;;;6.10;;
32838;SDS011;19182;41.820;12.808;2023-08-20T01:05:02;10.57;;;6.28;;
32838;SDS011;19182;41.820;12.808;2023-08-20T01:07:39;14.02;;;6.78;;
32838;SDS011;19182;41.820;12.808;2023-08-20T01:10:43;7.78;;;6.10;;
32838;SDS011;19182;41.820;12.808;2023-08-20T01:13:17;10.75;;;6.15;;
32838;SDS011;19182;41.820;12.808;2023-08-20T01:15:44;10.45;;;6.65;;
32838;SDS011;19182;41.820;12.808;2023-08-20T01:18:11;13.95;;;5.55;;
32838;SDS011;19182;41.820;12.808;2023-08-20T01:20:41;9.73;;;6.10;;
32838;SDS011;19182;41.820;12.808;2023-08-20T01:25:58;7.35;;;5.80;;
32838;SDS011;19182;41.820;12.808;2023-08-20T01:28:36;12.25;;;6.32;;
32838;SDS011;19182;41.820;12.808;2023-08-20T01:31:04;8.63;;;6.35;;
32838;SDS011;19182;41.820;12.808;2023-08-20T01:33:31;12.95;;;6.45;;
32838;SDS011;19182;41.820;12.808;2023-08-20T01:35:58;8.77;;;6.18;;
32838;SDS011;19182;41.820;12.808;2023-08-20T01:38:25;10.95;;;6.70;;
32838;SDS011;19182;41.820;12.808;2023-08-20T01:40:50;9.57;;;7.05;;
32838;SDS011;19182;41.820;12.808;2023-08-20T01:43:16;10.85;;;5.97;;
32838;SDS011;19182;41.820;12.808;2023-08-20T01:45:43;8.65;;;6.25;;
32838;SDS011;19182;41.820;12.808;2023-08-20T01:48:10;12.20;;;7.55;;
32838;SDS011;19182;41.820;12.808;2023-08-20T01:50:37;12.27;;;6.80;;
32838;SDS011;19182;41.820;12.808;2023-08-20T01:53:03;13.02;;;7.20;;
32838;SDS011;19182;41.820;12.808;2023-08-20T01:55:29;8.77;;;7.10;;
32838;SDS011;19182;41.820;12.808;2023-08-20T01:57:55;12.82;;;8.15;;
32838;SDS011;19182;41.820;12.808;2023-08-20T02:00:22;10.00;;;7.22;;
32838;SDS011;19182;41.820;12.808;2023-08-20T02:02:49;10.02;;;8.35;;
32838;SDS011;19182;41.820;12.808;2023-08-20T02:05:17;12.45;;;8.10;;
32838;SDS011;19182;41.820;12.808;2023-08-20T02:07:44;12.00;;;8.48;;
32838;SDS011;19182;41.820;12.808;2023-08-20T02:10:11;19.55;;;9.15;;
32838;SDS011;19182;41.820;12.808;2023-08-20T02:12:38;13.07;;;9.40;;
32838;SDS011;19182;41.820;12.808;2023-08-20T02:15:04;11.68;;;7.93;;
32838;SDS011;19182;41.820;12.808;2023-08-20T02:17:30;9.25;;;7.63;;
32838;SDS011;19182;41.820;12.808;2023-08-20T02:19:58;11.55;;;7.15;;
32838;SDS011;19182;41.820;12.808;2023-08-20T02:22:23;10.88;;;8.10;;
32838;SDS011;19182;41.820;12.808;2023-08-20T02:24:49;10.77;;;7.82;;
32838;SDS011;19182;41.820;12.808;2023-08-20T02:27:16;13.88;;;7.72;;
32838;SDS011;19182;41.820;12.808;2023-08-20T02:29:41;10.63;;;7.53;;
32838;SDS011;19182;41.820;12.808;2023-08-20T02:32:10;11.18;;;8.07;;
32838;SDS011;19182;41.820;12.808;2023-08-20T02:34:37;12.48;;;8.13;;
32838;SDS011;19182;41.820;12.808;2023-08-20T02:37:03;10.40;;;8.13;;
32838;SDS011;19182;41.820;12.808;2023-08-20T02:39:28;9.88;;;7.38;;
32838;SDS011;19182;41.820;12.808;2023-08-20T02:41:54;11.38;;;7.57;;
32838;SDS011;19182;41.820;12.808;2023-08-20T02:44:21;10.25;;;8.43;;
32838;SDS011;19182;41.820;12.808;2023-08-20T02:46:48;13.45;;;9.02;;
32838;SDS011;19182;41.820;12.808;2023-08-20T02:49:14;13.38;;;8.18;;
32838;SDS011;19182;41.820;12.808;2023-08-20T02:51:42;12.02;;;7.60;;
32838;SDS011;19182;41.820;12.808;2023-08-20T02:54:08;10.32;;;7.93;;
32838;SDS011;19182;41.820;12.808;2023-08-20T02:56:34;9.38;;;7.15;;
32838;SDS011;19182;41.820;12.808;2023-08-20T02:59:01;14.38;;;8.25;;
32838;SDS011;19182;41.820;12.808;2023-08-20T03:01:27;12.98;;;8.48;;
32838;SDS011;19182;41.820;12.808;2023-08-20T03:03:54;8.55;;;7.70;;
32838;SDS011;19182;41.820;12.808;2023-08-20T03:06:19;11.13;;;7.60;;
32838;SDS011;19182;41.820;12.808;2023-08-20T03:08:45;11.07;;;8.10;;
32838;SDS011;19182;41.820;12.808;2023-08-20T03:11:11;11.15;;;7.78;;
32838;SDS011;19182;41.820;12.808;2023-08-20T03:13:37;8.45;;;7.05;;
32838;SDS011;19182;41.820;12.808;2023-08-20T03:16:02;12.25;;;8.00;;
32838;SDS011;19182;41.820;12.808;2023-08-20T03:18:29;10.10;;;7.68;;
32838;SDS011;19182;41.820;12.808;2023-08-20T03:20:56;11.40;;;7.07;;
32838;SDS011;19182;41.820;12.808;2023-08-20T03:23:23;8.25;;;7.35;;
32838;SDS011;19182;41.820;12.808;2023-08-20T03:25:49;9.45;;;7.78;;
32838;SDS011;19182;41.820;12.808;2023-08-20T03:28:15;10.32;;;7.40;;
32838;SDS011;19182;41.820;12.808;2023-08-20T03:30:42;13.60;;;8.43;;
32838;SDS011;19182;41.820;12.808;2023-08-20T03:33:08;16.15;;;7.75;;
32838;SDS011;19182;41.820;12.808;2023-08-20T03:35:35;12.20;;;7.40;;
32838;SDS011;19182;41.820;12.808;2023-08-20T03:38:01;8.02;;;7.18;;
32838;SDS011;19182;41.820;12.808;2023-08-20T03:40:28;12.05;;;7.18;;
32838;SDS011;19182;41.820;12.808;2023-08-20T03:42:56;12.23;;;7.65;;
32838;SDS011;19182;41.820;12.808;2023-08-20T03:45:23;12.13;;;7.45;;
32838;SDS011;19182;41.820;12.808;2023-08-20T03:47:50;8.88;;;7.35;;
32838;SDS011;19182;41.820;12.808;2023-08-20T03:50:17;10.65;;;8.00;;
32838;SDS011;19182;41.820;12.808;2023-08-20T03:52:45;15.23;;;7.53;;
32838;SDS011;19182;41.820;12.808;2023-08-20T03:55:12;11.05;;;8.13;;
32838;SDS011;19182;41.820;12.808;2023-08-20T03:57:39;13.95;;;8.43;;
32838;SDS011;19182;41.820;12.808;2023-08-20T04:00:05;13.88;;;8.82;;
32838;SDS011;19182;41.820;12.808;2023-08-20T04:02:35;13.73;;;7.80;;
32838;SDS011;19182;41.820;12.808;2023-08-20T04:05:02;13.90;;;8.98;;
32838;SDS011;19182;41.820;12.808;2023-08-20T04:07:29;11.57;;;7.78;;
32838;SDS011;19182;41.820;12.808;2023-08-20T04:09:55;10.85;;;8.00;;
32838;SDS011;19182;41.820;12.808;2023-08-20T04:12:21;14.73;;;8.07;;
32838;SDS011;19182;41.820;12.808;2023-08-20T04:14:47;15.35;;;8.65;;
32838;SDS011;19182;41.820;12.808;2023-08-20T04:17:13;17.58;;;8.32;;
32838;SDS011;19182;41.820;12.808;2023-08-20T04:19:40;12.95;;;7.93;;
32838;SDS011;19182;41.820;12.808;2023-08-20T04:22:07;12.18;;;7.40;;
32838;SDS011;19182;41.820;12.808;2023-08-20T04:24:32;16.38;;;8.43;;
32838;SDS011;19182;41.820;12.808;2023-08-20T04:26:58;14.38;;;8.38;;
32838;SDS011;19182;41.820;12.808;2023-08-20T04:29:25;15.38;;;7.57;;
32838;SDS011;19182;41.820;12.808;2023-08-20T04:31:52;20.40;;;8.02;;
32838;SDS011;19182;41.820;12.808;2023-08-20T04:34:18;8.43;;;7.53;;
32838;SDS011;19182;41.820;12.808;2023-08-20T04:36:44;9.57;;;8.13;;
32838;SDS011;19182;41.820;12.808;2023-08-20T04:39:09;12.82;;;8.40;;
32838;SDS011;19182;41.820;12.808;2023-08-20T04:41:35;10.45;;;7.97;;
32838;SDS011;19182;41.820;12.808;2023-08-20T04:44:01;11.70;;;9.20;;
32838;SDS011;19182;41.820;12.808;2023-08-20T04:46:26;12.93;;;8.77;;
32838;SDS011;19182;41.820;12.808;2023-08-20T04:48:53;12.18;;;7.88;;
32838;SDS011;19182;41.820;12.808;2023-08-20T04:51:20;13.80;;;9.50;;
32838;SDS011;19182;41.820;12.808;2023-08-20T04:53:46;14.43;;;8.95;;
32838;SDS011;19182;41.820;12.808;2023-08-20T04:56:13;10.35;;;8.07;;
32838;SDS011;19182;41.820;12.808;2023-08-20T04:58:39;11.68;;;8.68;;
32838;SDS011;19182;41.820;12.808;2023-08-20T05:01:05;9.07;;;7.93;;
32838;SDS011;19182;41.820;12.808;2023-08-20T05:03:32;12.90;;;8.80;;
32838;SDS011;19182;41.820;12.808;2023-08-20T05:05:58;13.48;;;9.13;;
32838;SDS011;19182;41.820;12.808;2023-08-20T05:08:25;14.77;;;9.00;;
32838;SDS011;19182;41.820;12.808;2023-08-20T05:10:50;11.73;;;8.48;;
32838;SDS011;19182;41.820;12.808;2023-08-20T05:13:17;16.30;;;8.38;;
32838;SDS011;19182;41.820;12.808;2023-08-20T05:15:46;10.20;;;8.50;;
32838;SDS011;19182;41.820;12.808;2023-08-20T05:18:13;13.48;;;8.38;;
32838;SDS011;19182;41.820;12.808;2023-08-20T05:20:40;12.27;;;8.48;;
32838;SDS011;19182;41.820;12.808;2023-08-20T05:23:06;13.82;;;8.75;;
32838;SDS011;19182;41.820;12.808;2023-08-20T05:25:32;12.63;;;8.77;;
32838;SDS011;19182;41.820;12.808;2023-08-20T05:27:59;16.60;;;8.57;;
32838;SDS011;19182;41.820;12.808;2023-08-20T05:30:26;12.63;;;7.88;;
32838;SDS011;19182;41.820;12.808;2023-08-20T05:32:51;13.18;;;7.97;;
32838;SDS011;19182;41.820;12.808;2023-08-20T05:35:17;10.65;;;8.32;;
32838;SDS011;19182;41.820;12.808;2023-08-20T05:37:43;16.77;;;8.88;;
32838;SDS011;19182;41.820;12.808;2023-08-20T05:40:09;17.23;;;8.82;;
32838;SDS011;19182;41.820;12.808;2023-08-20T05:42:35;15.85;;;8.77;;
32838;SDS011;19182;41.820;12.808;2023-08-20T05:45:01;18.15;;;8.25;;
32838;SDS011;19182;41.820;12.808;2023-08-20T05:47:27;11.80;;;8.05;;
32838;SDS011;19182;41.820;12.808;2023-08-20T05:49:53;12.25;;;8.70;;
32838;SDS011;19182;41.820;12.808;2023-08-20T05:52:19;13.90;;;8.45;;
32838;SDS011;19182;41.820;12.808;2023-08-20T05:54:45;12.43;;;8.15;;
32838;SDS011;19182;41.820;12.808;2023-08-20T05:57:12;12.80;;;7.32;;
32838;SDS011;19182;41.820;12.808;2023-08-20T05:59:39;16.98;;;8.55;;
32838;SDS011;19182;41.820;12.808;2023-08-20T06:02:06;12.82;;;8.05;;
32838;SDS011;19182;41.820;12.808;2023-08-20T06:04:33;8.43;;;7.13;;
32838;SDS011;19182;41.820;12.808;2023-08-20T06:07:00;10.10;;;6.72;;
32838;SDS011;19182;41.820;12.808;2023-08-20T06:09:27;11.80;;;6.72;;
32838;SDS011;19182;41.820;12.808;2023-08-20T06:11:54;14.18;;;7.75;;
32838;SDS011;19182;41.820;12.808;2023-08-20T06:14:21;10.45;;;6.75;;
32838;SDS011;19182;41.820;12.808;2023-08-20T06:16:46;11.70;;;6.93;;
32838;SDS011;19182;41.820;12.808;2023-08-20T06:19:12;12.93;;;7.07;;
32838;SDS011;19182;41.820;12.808;2023-08-20T06:21:38;8.82;;;6.20;;
32838;SDS011;19182;41.820;12.808;2023-08-20T06:24:06;12.05;;;7.30;;
32838;SDS011;19182;41.820;12.808;2023-08-20T06:26:33;7.93;;;6.10;;
32838;SDS011;19182;41.820;12.808;2023-08-20T06:28:59;8.35;;;6.20;;
32838;SDS011;19182;41.820;12.808;2023-08-20T06:31:25;8.32;;;6.05;;
32838;SDS011;19182;41.820;12.808;2023-08-20T06:33:51;8.65;;;5.80;;
32838;SDS011;19182;41.820;12.808;2023-08-20T06:36:18;7.72;;;6.18;;
32838;SDS011;19182;41.820;12.808;2023-08-20T06:38:44;8.90;;;6.35;;
32838;SDS011;19182;41.820;12.808;2023-08-20T06:41:10;6.63;;;5.95;;
32838;SDS011;19182;41.820;12.808;2023-08-20T06:43:35;8.88;;;6.00;;
32838;SDS011;19182;41.820;12.808;2023-08-20T06:46:02;6.53;;;5.65;;
32838;SDS011;19182;41.820;12.808;2023-08-20T06:48:28;8.88;;;6.20;;
32838;SDS011;19182;41.820;12.808;2023-08-20T06:50:55;10.98;;;6.50;;
32838;SDS011;19182;41.820;12.808;2023-08-20T06:53:21;9.15;;;6.43;;
32838;SDS011;19182;41.820;12.808;2023-08-20T06:55:47;7.88;;;6.55;;
32838;SDS011;19182;41.820;12.808;2023-08-20T06:58:14;9.70;;;6.40;;
32838;SDS011;19182;41.820;12.808;2023-08-20T07:00:41;10.07;;;6.07;;
32838;SDS011;19182;41.820;12.808;2023-08-20T07:03:07;7.90;;;6.13;;
32838;SDS011;19182;41.820;12.808;2023-08-20T07:05:32;10.25;;;6.80;;
32838;SDS011;19182;41.820;12.808;2023-08-20T07:08:00;8.30;;;6.22;;
32838;SDS011;19182;41.820;12.808;2023-08-20T07:10:26;7.72;;;6.28;;
32838;SDS011;19182;41.820;12.808;2023-08-20T07:12:52;7.50;;;5.72;;
32838;SDS011;19182;41.820;12.808;2023-08-20T07:15:19;7.88;;;6.05;;
32838;SDS011;19182;41.820;12.808;2023-08-20T07:17:47;6.88;;;5.88;;
32838;SDS011;19182;41.820;12.808;2023-08-20T07:20:14;9.20;;;5.75;;
32838;SDS011;19182;41.820;12.808;2023-08-20T07:22:39;10.23;;;6.40;;
32838;SDS011;19182;41.820;12.808;2023-08-20T07:25:05;9.45;;;5.72;;
32838;SDS011;19182;41.820;12.808;2023-08-20T07:27:31;8.13;;;6.13;;
32838;SDS011;19182;41.820;12.808;2023-08-20T07:29:56;7.97;;;5.95;;
32838;SDS011;19182;41.820;12.808;2023-08-20T07:32:22;9.88;;;6.00;;
32838;SDS011;19182;41.820;12.808;2023-08-20T07:34:49;9.05;;;5.88;;
32838;SDS011;19182;41.820;12.808;2023-08-20T07:37:16;10.02;;;6.40;;
32838;SDS011;19182;41.820;12.808;2023-08-20T07:39:41;9.15;;;5.97;;
32838;SDS011;19182;41.820;12.808;2023-08-20T07:42:07;9.30;;;6.57;;
32838;SDS011;19182;41.820;12.808;2023-08-20T07:44:35;9.70;;;7.00;;
32838;SDS011;19182;41.820;12.808;2023-08-20T07:47:03;10.20;;;6.35;;
32838;SDS011;19182;41.820;12.808;2023-08-20T07:49:28;6.53;;;5.85;;
32838;SDS011;19182;41.820;12.808;2023-08-20T07:51:54;7.82;;;6.60;;
32838;SDS011;19182;41.820;12.808;2023-08-20T07:54:21;7.55;;;5.80;;
32838;SDS011;19182;41.820;12.808;2023-08-20T07:56:48;12.48;;;6.35;;
32838;SDS011;19182;41.820;12.808;2023-08-20T07:59:14;6.82;;;6.15;;
32838;SDS011;19182;41.820;12.808;2023-08-20T08:01:40;9.68;;;6.72;;
32838;SDS011;19182;41.820;12.808;2023-08-20T08:04:06;11.43;;;6.75;;
32838;SDS011;19182;41.820;12.808;2023-08-20T08:06:32;7.30;;;6.22;;
32838;SDS011;19182;41.820;12.808;2023-08-20T08:08:57;9.32;;;6.80;;
32838;SDS011;19182;41.820;12.808;2023-08-20T08:11:44;6.65;;;5.95;;
32838;SDS011;19182;41.820;12.808;2023-08-20T08:14:10;10.57;;;7.15;;
32838;SDS011;19182;41.820;12.808;2023-08-20T08:16:36;10.13;;;6.95;;
32838;SDS011;19182;41.820;12.808;2023-08-20T08:19:03;9.98;;;5.78;;
32838;SDS011;19182;41.820;12.808;2023-08-20T08:21:29;9.10;;;6.43;;
32838;SDS011;19182;41.820;12.808;2023-08-20T08:23:55;8.65;;;6.40;;
32838;SDS011;19182;41.820;12.808;2023-08-20T08:26:20;8.82;;;6.43;;
32838;SDS011;19182;41.820;12.808;2023-08-20T08:28:46;9.18;;;6.65;;
32838;SDS011;19182;41.820;12.808;2023-08-20T08:31:12;8.73;;;6.47;;
32838;SDS011;19182;41.820;12.808;2023-08-20T08:33:39;10.88;;;6.53;;
32838;SDS011;19182;41.820;12.808;2023-08-20T08:36:06;9.55;;;7.50;;
32838;SDS011;19182;41.820;12.808;2023-08-20T08:38:32;10.35;;;6.97;;
32838;SDS011;19182;41.820;12.808;2023-08-20T08:41:01;12.40;;;6.50;;
32838;SDS011;19182;41.820;12.808;2023-08-20T08:43:35;9.85;;;6.70;;
32838;SDS011;19182;41.820;12.808;2023-08-20T08:46:02;9.02;;;7.10;;
32838;SDS011;19182;41.820;12.808;2023-08-20T08:48:31;8.45;;;7.00;;
32838;SDS011;19182;41.820;12.808;2023-08-20T08:50:59;7.53;;;6.43;;
32838;SDS011;19182;41.820;12.808;2023-08-20T08:53:27;12.95;;;6.32;;
32838;SDS011;19182;41.820;12.808;2023-08-20T08:55:53;7.80;;;7.00;;
32838;SDS011;19182;41.820;12.808;2023-08-20T08:58:19;11.00;;;7.32;;
32838;SDS011;19182;41.820;12.808;2023-08-20T09:00:45;7.35;;;6.57;;
32838;SDS011;19182;41.820;12.808;2023-08-20T09:03:11;7.80;;;7.00;;
32838;SDS011;19182;41.820;12.808;2023-08-20T09:05:47;9.60;;;7.35;;
32838;SDS011;19182;41.820;12.808;2023-08-20T09:08:20;8.40;;;7.03;;
32838;SDS011;19182;41.820;12.808;2023-08-20T09:10:49;12.48;;;7.93;;
32838;SDS011;19182;41.820;12.808;2023-08-20T09:13:16;10.18;;;7.18;;
32838;SDS011;19182;41.820;12.808;2023-08-20T09:16:04;10.10;;;7.80;;
32838;SDS011;19182;41.820;12.808;2023-08-20T09:18:31;10.55;;;7.65;;
32838;SDS011;19182;41.820;12.808;2023-08-20T09:21:09;10.43;;;7.57;;
32838;SDS011;19182;41.820;12.808;2023-08-20T09:23:36;12.25;;;7.35;;
32838;SDS011;19182;41.820;12.808;2023-08-20T09:26:03;8.50;;;7.60;;
32838;SDS011;19182;41.820;12.808;2023-08-20T09:28:40;8.32;;;7.45;;
32838;SDS011;19182;41.820;12.808;2023-08-20T09:31:11;9.35;;;7.88;;
32838;SDS011;19182;41.820;12.808;2023-08-20T09:33:48;10.43;;;7.50;;
32838;SDS011;19182;41.820;12.808;2023-08-20T09:36:17;8.40;;;7.50;;
32838;SDS011;19182;41.820;12.808;2023-08-20T09:38:43;11.27;;;8.63;;
32838;SDS011;19182;41.820;12.808;2023-08-20T09:41:08;10.88;;;7.40;;
32838;SDS011;19182;41.820;12.808;2023-08-20T09:43:37;7.97;;;7.18;;
32838;SDS011;19182;41.820;12.808;2023-08-20T09:46:05;8.55;;;7.63;;
32838;SDS011;19182;41.820;12.808;2023-08-20T09:48:34;11.73;;;7.68;;
32838;SDS011;19182;41.820;12.808;2023-08-20T09:51:10;10.63;;;7.50;;
32838;SDS011;19182;41.820;12.808;2023-08-20T09:53:38;10.88;;;8.18;;
32838;SDS011;19182;41.820;12.808;2023-08-20T09:56:29;9.23;;;7.78;;
32838;SDS011;19182;41.820;12.808;2023-08-20T09:58:59;8.10;;;7.30;;
32838;SDS011;19182;41.820;12.808;2023-08-20T10:01:26;8.65;;;7.68;;
32838;SDS011;19182;41.820;12.808;2023-08-20T10:06:22;8.65;;;7.75;;
32838;SDS011;19182;41.820;12.808;2023-08-20T10:08:50;10.90;;;7.35;;
32838;SDS011;19182;41.820;12.808;2023-08-20T10:11:16;10.55;;;8.25;;
32838;SDS011;19182;41.820;12.808;2023-08-20T10:13:42;10.15;;;7.45;;
32838;SDS011;19182;41.820;12.808;2023-08-20T10:16:11;9.05;;;7.97;;
32838;SDS011;19182;41.820;12.808;2023-08-20T10:18:39;8.98;;;8.07;;
32838;SDS011;19182;41.820;12.808;2023-08-20T10:21:05;9.27;;;8.05;;
32838;SDS011;19182;41.820;12.808;2023-08-20T10:23:34;10.93;;;7.93;;
32838;SDS011;19182;41.820;12.808;2023-08-20T10:26:07;11.98;;;7.75;;
32838;SDS011;19182;41.820;12.808;2023-08-20T10:28:34;8.23;;;7.40;;
32838;SDS011;19182;41.820;12.808;2023-08-20T10:31:08;8.43;;;7.40;;
32838;SDS011;19182;41.820;12.808;2023-08-20T10:33:37;9.70;;;7.70;;
32838;SDS011;19182;41.820;12.808;2023-08-20T10:36:22;9.23;;;7.70;;
32838;SDS011;19182;41.820;12.808;2023-08-20T10:38:55;9.98;;;7.70;;
32838;SDS011;19182;41.820;12.808;2023-08-20T10:41:26;8.88;;;7.95;;
32838;SDS011;19182;41.820;12.808;2023-08-20T10:43:57;9.52;;;7.80;;
32838;SDS011;19182;41.820;12.808;2023-08-20T10:46:24;8.52;;;7.60;;
32838;SDS011;19182;41.820;12.808;2023-08-20T10:48:54;8.07;;;7.28;;
32838;SDS011;19182;41.820;12.808;2023-08-20T10:51:27;10.63;;;8.40;;
32838;SDS011;19182;41.820;12.808;2023-08-20T11:01:38;8.40;;;7.60;;
32838;SDS011;19182;41.820;12.808;2023-08-20T11:04:04;8.23;;;7.43;;
32838;SDS011;19182;41.820;12.808;2023-08-20T11:06:32;9.77;;;8.13;;
32838;SDS011;19182;41.820;12.808;2023-08-20T11:08:58;9.48;;;8.07;;
32838;SDS011;19182;41.820;12.808;2023-08-20T11:11:25;10.23;;;8.63;;
32838;SDS011;19182;41.820;12.808;2023-08-20T11:13:51;11.07;;;7.28;;
32838;SDS011;19182;41.820;12.808;2023-08-20T11:16:17;7.78;;;7.07;;
32838;SDS011;19182;41.820;12.808;2023-08-20T11:18:44;7.97;;;7.20;;
32838;SDS011;19182;41.820;12.808;2023-08-20T11:21:11;8.30;;;7.30;;
32838;SDS011;19182;41.820;12.808;2023-08-20T11:23:39;12.52;;;7.80;;
32838;SDS011;19182;41.820;12.808;2023-08-20T11:26:07;10.27;;;7.93;;
32838;SDS011;19182;41.820;12.808;2023-08-20T11:28:33;44.00;;;10.27;;
32838;SDS011;19182;41.820;12.808;2023-08-20T11:30:59;8.63;;;7.00;;
32838;SDS011;19182;41.820;12.808;2023-08-20T11:33:26;8.95;;;7.63;;
32838;SDS011;19182;41.820;12.808;2023-08-20T11:35:52;8.15;;;7.35;;
32838;SDS011;19182;41.820;12.808;2023-08-20T11:38:20;9.40;;;7.75;;
32838;SDS011;19182;41.820;12.808;2023-08-20T11:40:47;8.32;;;7.43;;
32838;SDS011;19182;41.820;12.808;2023-08-20T11:43:13;8.07;;;7.28;;
32838;SDS011;19182;41.820;12.808;2023-08-20T11:45:45;8.10;;;7.38;;
32838;SDS011;19182;41.820;12.808;2023-08-20T11:48:14;10.48;;;7.95;;
32838;SDS011;19182;41.820;12.808;2023-08-20T11:50:41;7.93;;;7.22;;
32838;SDS011;19182;41.820;12.808;2023-08-20T11:53:08;8.35;;;7.30;;
32838;SDS011;19182;41.820;12.808;2023-08-20T11:55:35;9.73;;;7.88;;
32838;SDS011;19182;41.820;12.808;2023-08-20T11:58:02;8.00;;;7.25;;
32838;SDS011;19182;41.820;12.808;2023-08-20T12:00:30;10.02;;;7.85;;
32838;SDS011;19182;41.820;12.808;2023-08-20T12:02:57;8.27;;;7.50;;
32838;SDS011;19182;41.820;12.808;2023-08-20T12:05:29;8.02;;;7.22;;
32838;SDS011;19182;41.820;12.808;2023-08-20T12:10:28;9.75;;;7.30;;
32838;SDS011;19182;41.820;12.808;2023-08-20T12:12:56;9.63;;;7.40;;
32838;SDS011;19182;41.820;12.808;2023-08-20T12:15:23;9.50;;;7.65;;
32838;SDS011;19182;41.820;12.808;2023-08-20T12:17:56;8.30;;;7.50;;
32838;SDS011;19182;41.820;12.808;2023-08-20T12:20:29;9.85;;;7.60;;
32838;SDS011;19182;41.820;12.808;2023-08-20T12:23:01;8.98;;;8.07;;
32838;SDS011;19182;41.820;12.808;2023-08-20T12:25:30;8.65;;;7.20;;
32838;SDS011;19182;41.820;12.808;2023-08-20T12:27:58;8.10;;;7.35;;
32838;SDS011;19182;41.820;12.808;2023-08-20T12:30:29;9.32;;;7.60;;
32838;SDS011;19182;41.820;12.808;2023-08-20T12:32:56;9.13;;;7.15;;
32838;SDS011;19182;41.820;12.808;2023-08-20T12:35:21;8.45;;;7.65;;
32838;SDS011;19182;41.820;12.808;2023-08-20T12:37:47;8.88;;;7.97;;
32838;SDS011;19182;41.820;12.808;2023-08-20T12:40:13;7.55;;;6.82;;
32838;SDS011;19182;41.820;12.808;2023-08-20T12:42:39;10.57;;;7.72;;
32838;SDS011;19182;41.820;12.808;2023-08-20T12:45:05;8.48;;;7.68;;
32838;SDS011;19182;41.820;12.808;2023-08-20T12:47:33;9.90;;;7.57;;
32838;SDS011;19182;41.820;12.808;2023-08-20T12:49:59;8.23;;;7.43;;
32838;SDS011;19182;41.820;12.808;2023-08-20T12:52:25;9.10;;;8.20;;
32838;SDS011;19182;41.820;12.808;2023-08-20T12:54:51;8.93;;;7.72;;
32838;SDS011;19182;41.820;12.808;2023-08-20T12:57:18;8.15;;;7.45;;
32838;SDS011;19182;41.820;12.808;2023-08-20T12:59:44;9.85;;;8.10;;
32838;SDS011;19182;41.820;12.808;2023-08-20T13:02:10;8.25;;;7.47;;
32838;SDS011;19182;41.820;12.808;2023-08-20T13:04:36;10.20;;;7.85;;
32838;SDS011;19182;41.820;12.808;2023-08-20T13:07:02;9.35;;;8.23;;
32838;SDS011;19182;41.820;12.808;2023-08-20T13:09:29;10.45;;;8.65;;
32838;SDS011;19182;41.820;12.808;2023-08-20T13:11:57;9.73;;;8.40;;
32838;SDS011;19182;41.820;12.808;2023-08-20T13:14:27;9.60;;;7.60;;
32838;SDS011;19182;41.820;12.808;2023-08-20T13:16:53;10.90;;;8.15;;
32838;SDS011;19182;41.820;12.808;2023-08-20T13:19:25;9.73;;;8.15;;
32838;SDS011;19182;41.820;12.808;2023-08-20T13:21:51;9.25;;;8.02;;
32838;SDS011;19182;41.820;12.808;2023-08-20T13:24:16;8.95;;;7.82;;
32838;SDS011;19182;41.820;12.808;2023-08-20T13:26:42;9.10;;;8.27;;
32838;SDS011;19182;41.820;12.808;2023-08-20T13:29:09;8.60;;;7.43;;
32838;SDS011;19182;41.820;12.808;2023-08-20T13:31:37;10.50;;;8.05;;
32838;SDS011;19182;41.820;12.808;2023-08-20T13:34:03;9.63;;;7.78;;
32838;SDS011;19182;41.820;12.808;2023-08-20T13:36:28;8.93;;;7.60;;
32838;SDS011;19182;41.820;12.808;2023-08-20T13:38:55;7.72;;;7.03;;
32838;SDS011;19182;41.820;12.808;2023-08-20T13:41:21;8.60;;;7.40;;
32838;SDS011;19182;41.820;12.808;2023-08-20T13:43:46;10.38;;;8.00;;
32838;SDS011;19182;41.820;12.808;2023-08-20T13:46:13;11.25;;;7.25;;
32838;SDS011;19182;41.820;12.808;2023-08-20T13:48:39;11.70;;;7.75;;
32838;SDS011;19182;41.820;12.808;2023-08-20T13:51:04;8.57;;;6.97;;
32838;SDS011;19182;41.820;12.808;2023-08-20T13:53:30;8.27;;;7.00;;
32838;SDS011;19182;41.820;12.808;2023-08-20T13:55:56;7.45;;;6.75;;
32838;SDS011;19182;41.820;12.808;2023-08-20T13:58:23;7.65;;;6.90;;
32838;SDS011;19182;41.820;12.808;2023-08-20T14:00:50;8.23;;;7.43;;
32838;SDS011;19182;41.820;12.808;2023-08-20T14:03:16;8.50;;;7.20;;
32838;SDS011;19182;41.820;12.808;2023-08-20T14:05:41;9.27;;;6.50;;
32838;SDS011;19182;41.820;12.808;2023-08-20T14:08:10;8.02;;;7.22;;
32838;SDS011;19182;41.820;12.808;2023-08-20T14:10:35;8.85;;;8.05;;
32838;SDS011;19182;41.820;12.808;2023-08-20T14:13:01;15.80;;;8.90;;
32838;SDS011;19182;41.820;12.808;2023-08-20T14:15:28;9.65;;;8.65;;
32838;SDS011;19182;41.820;12.808;2023-08-20T14:17:53;11.18;;;8.68;;
32838;SDS011;19182;41.820;12.808;2023-08-20T14:20:19;11.13;;;9.55;;
32838;SDS011;19182;41.820;12.808;2023-08-20T14:22:45;11.80;;;8.50;;
32838;SDS011;19182;41.820;12.808;2023-08-20T14:25:10;9.98;;;8.98;;
32838;SDS011;19182;41.820;12.808;2023-08-20T14:27:36;13.18;;;9.52;;
32838;SDS011;19182;41.820;12.808;2023-08-20T14:30:02;16.02;;;9.57;;
32838;SDS011;19182;41.820;12.808;2023-08-20T14:32:29;12.32;;;8.95;;
32838;SDS011;19182;41.820;12.808;2023-08-20T14:34:55;9.82;;;8.82;;
32838;SDS011;19182;41.820;12.808;2023-08-20T14:37:20;13.18;;;9.52;;
32838;SDS011;19182;41.820;12.808;2023-08-20T14:39:49;11.82;;;8.77;;
32838;SDS011;19182;41.820;12.808;2023-08-20T14:42:14;11.95;;;9.60;;
32838;SDS011;19182;41.820;12.808;2023-08-20T14:44:40;16.05;;;9.07;;